createdAt,value
2022-11-13T00:01:26.820Z,5.03
2022-11-13T00:04:12.646Z,4.70
2022-11-13T00:06:59.494Z,5.30
2022-11-13T00:09:45.058Z,5.43
2022-11-13T00:12:30.786Z,5.65
2022-11-13T00:15:16.413Z,4.22
2022-11-13T00:18:02.899Z,5.15
2022-11-13T00:20:48.472Z,4.63
2022-11-13T00:23:34.859Z,4.53
2022-11-13T00:26:25.588Z,5.45
2022-11-13T00:29:10.821Z,4.20
2022-11-13T00:31:56.033Z,4.47
2022-11-13T00:34:47.723Z,4.93
2022-11-13T00:37:33.866Z,4.50
2022-11-13T00:40:19.362Z,4.20
2022-11-13T00:43:05.025Z,4.97
2022-11-13T00:45:50.502Z,4.20
2022-11-13T00:48:36.891Z,4.82
2022-11-13T00:51:22.483Z,4.28
2022-11-13T00:54:07.833Z,5.15
2022-11-13T00:56:53.460Z,4.18
2022-11-13T00:59:38.850Z,4.72
2022-11-13T01:02:24.506Z,4.75
2022-11-13T01:05:09.983Z,5.07
2022-11-13T01:07:55.558Z,4.30
2022-11-13T01:10:45.599Z,4.38
2022-11-13T01:13:33.244Z,4.30
2022-11-13T01:16:21.666Z,3.78
2022-11-13T01:19:07.027Z,4.60
2022-11-13T01:21:52.608Z,3.97
2022-11-13T01:24:37.955Z,3.97
2022-11-13T01:27:23.466Z,4.60
2022-11-13T01:30:09.930Z,3.78
2022-11-13T01:32:55.260Z,3.80
2022-11-13T01:35:40.730Z,4.10
2022-11-13T01:38:26.335Z,3.83
2022-11-13T01:41:25.894Z,3.90
2022-11-13T01:44:13.998Z,3.97
2022-11-13T01:46:59.271Z,3.78
2022-11-13T01:49:45.967Z,4.07
2022-11-13T01:52:36.575Z,4.28
2022-11-13T01:55:22.106Z,3.65
2022-11-13T01:58:10.337Z,4.10
2022-11-13T02:00:55.563Z,3.63
2022-11-13T02:03:40.867Z,4.30
2022-11-13T02:06:31.970Z,3.17
2022-11-13T02:09:20.891Z,3.65
2022-11-13T02:12:08.210Z,3.80
2022-11-13T02:14:55.306Z,4.00
2022-11-13T02:17:46.311Z,3.30
2022-11-13T02:21:00.795Z,3.55
2022-11-13T02:24:02.481Z,3.90
2022-11-13T02:26:50.719Z,3.90
2022-11-13T02:29:36.562Z,3.33
2022-11-13T02:32:21.983Z,3.90
2022-11-13T02:35:07.752Z,3.63
2022-11-13T02:37:56.308Z,4.57
2022-11-13T02:40:41.847Z,4.20
2022-11-13T02:43:27.354Z,3.47
2022-11-13T02:46:12.447Z,3.97
2022-11-13T02:48:58.042Z,3.60
2022-11-13T02:51:43.206Z,3.72
2022-11-13T02:54:28.506Z,4.28
2022-11-13T02:57:13.958Z,3.90
2022-11-13T02:59:59.798Z,4.35
2022-11-13T03:02:44.960Z,3.63
2022-11-13T03:05:30.407Z,3.35
2022-11-13T03:08:16.478Z,3.90
2022-11-13T03:11:08.760Z,3.20
2022-11-13T03:13:54.054Z,3.42
2022-11-13T03:16:39.299Z,3.38
2022-11-13T03:19:24.659Z,3.70
2022-11-13T03:22:10.206Z,3.78
2022-11-13T03:24:55.557Z,3.33
2022-11-13T03:27:41.029Z,3.72
2022-11-13T03:30:27.508Z,3.92
2022-11-13T03:33:12.847Z,3.70
2022-11-13T03:35:58.535Z,4.10
2022-11-13T03:38:43.722Z,3.10
2022-11-13T03:41:29.462Z,3.38
2022-11-13T03:44:14.562Z,3.55
2022-11-13T03:46:59.951Z,3.47
2022-11-13T03:49:45.444Z,3.58
2022-11-13T03:52:30.776Z,3.75
2022-11-13T03:55:16.386Z,3.72
2022-11-13T03:58:01.782Z,3.38
2022-11-13T04:00:49.410Z,3.47
2022-11-13T04:03:34.589Z,3.90
2022-11-13T04:06:19.995Z,3.63
2022-11-13T04:09:05.507Z,3.45
2022-11-13T04:11:50.851Z,3.33
2022-11-13T04:14:36.410Z,3.63
2022-11-13T04:17:21.951Z,3.78
2022-11-13T04:20:08.418Z,3.22
2022-11-13T04:22:55.554Z,3.22
2022-11-13T04:25:40.739Z,3.97
2022-11-13T04:28:26.319Z,3.88
2022-11-13T04:31:12.264Z,3.35
2022-11-13T04:33:57.696Z,2.95
2022-11-13T04:36:42.949Z,2.95
2022-11-13T04:39:28.483Z,3.22
2022-11-13T04:42:32.847Z,3.75
2022-11-13T04:45:21.990Z,3.40
2022-11-13T04:48:07.549Z,3.05
2022-11-13T04:50:53.006Z,3.28
2022-11-13T04:53:38.470Z,2.85
2022-11-13T04:56:24.012Z,3.25
2022-11-13T04:59:09.571Z,3.33
2022-11-13T05:01:55.863Z,3.30
2022-11-13T05:04:40.980Z,3.13
2022-11-13T05:07:26.537Z,3.58
2022-11-13T05:10:11.922Z,3.17
2022-11-13T05:12:57.139Z,3.53
2022-11-13T05:15:42.638Z,3.42
2022-11-13T05:18:28.420Z,3.20
2022-11-13T05:21:14.278Z,3.13
2022-11-13T05:23:59.495Z,3.08
2022-11-13T05:26:44.984Z,3.45
2022-11-13T05:29:30.400Z,3.30
2022-11-13T05:32:15.836Z,3.95
2022-11-13T05:35:01.150Z,3.97
2022-11-13T05:37:46.611Z,3.50
2022-11-13T05:40:31.939Z,2.92
2022-11-13T05:43:17.426Z,2.95
2022-11-13T05:46:10.823Z,3.88
2022-11-13T05:48:58.262Z,3.53
2022-11-13T05:51:43.737Z,3.38
2022-11-13T05:54:29.192Z,3.25
2022-11-13T05:57:14.657Z,3.58
2022-11-13T06:00:00.078Z,2.88
2022-11-13T06:02:45.625Z,3.65
2022-11-13T06:05:30.876Z,4.18
2022-11-13T06:08:16.641Z,3.45
2022-11-13T06:11:03.913Z,3.88
2022-11-13T06:13:50.505Z,3.45
2022-11-13T06:16:38.273Z,3.58
2022-11-13T06:19:23.355Z,2.90
2022-11-13T06:22:08.774Z,4.15
2022-11-13T06:24:54.399Z,3.30
2022-11-13T06:27:39.441Z,3.60
2022-11-13T06:30:24.861Z,3.10
2022-11-13T06:33:10.376Z,3.38
2022-11-13T06:35:55.813Z,3.50
2022-11-13T06:38:42.268Z,3.80
2022-11-13T06:41:31.119Z,3.15
2022-11-13T06:44:16.819Z,3.50
2022-11-13T06:47:02.267Z,3.40
2022-11-13T06:49:47.590Z,3.17
2022-11-13T06:52:34.058Z,4.05
2022-11-13T06:55:19.470Z,4.20
2022-11-13T06:58:05.219Z,3.30
2022-11-13T07:00:50.932Z,4.13
2022-11-13T07:03:36.855Z,4.03
2022-11-13T07:06:23.860Z,2.85
2022-11-13T07:09:09.140Z,3.85
2022-11-13T07:11:54.713Z,3.30
2022-11-13T07:14:40.115Z,3.42
2022-11-13T07:17:25.617Z,3.60
2022-11-13T07:20:11.235Z,2.95
2022-11-13T07:22:57.976Z,3.47
2022-11-13T07:25:43.666Z,3.97
2022-11-13T07:28:31.618Z,3.85
2022-11-13T07:31:17.875Z,3.63
2022-11-13T07:34:02.955Z,3.35
2022-11-13T07:36:48.465Z,3.20
2022-11-13T07:39:33.617Z,3.63
2022-11-13T07:42:19.386Z,3.63
2022-11-13T07:45:05.575Z,3.25
2022-11-13T07:47:51.048Z,3.20
2022-11-13T07:50:38.206Z,3.17
2022-11-13T07:53:23.398Z,6.70
2022-11-13T07:56:09.339Z,8.00
2022-11-13T07:58:54.767Z,9.15
2022-11-13T08:01:40.274Z,7.55
2022-11-13T08:04:25.805Z,8.15
2022-11-13T08:07:12.992Z,7.10
2022-11-13T08:09:58.705Z,7.57
2022-11-13T08:12:45.329Z,6.65
2022-11-13T08:15:31.166Z,6.88
2022-11-13T08:18:16.680Z,7.00
2022-11-13T08:21:04.198Z,6.05
2022-11-13T08:23:50.353Z,7.20
2022-11-13T08:26:38.665Z,5.60
2022-11-13T08:29:23.910Z,6.45
2022-11-13T08:32:09.387Z,5.43
2022-11-13T08:34:54.953Z,6.65
2022-11-13T08:37:40.164Z,6.28
2022-11-13T08:40:25.582Z,4.63
2022-11-13T08:43:10.922Z,4.65
2022-11-13T08:45:56.534Z,5.07
2022-11-13T08:48:41.642Z,4.82
2022-11-13T08:51:26.991Z,4.65
2022-11-13T08:54:12.402Z,5.30
2022-11-13T08:57:02.012Z,4.72
2022-11-13T08:59:50.174Z,3.70
2022-11-13T09:02:35.760Z,4.40
2022-11-13T09:05:21.604Z,3.95
2022-11-13T09:08:06.836Z,4.68
2022-11-13T09:10:52.350Z,3.65
2022-11-13T09:13:43.727Z,3.88
2022-11-13T09:16:30.541Z,4.43
2022-11-13T09:19:16.018Z,3.45
2022-11-13T09:22:01.663Z,3.05
2022-11-13T09:24:47.125Z,4.63
2022-11-13T09:27:32.712Z,3.85
2022-11-13T09:30:18.084Z,3.83
2022-11-13T09:33:03.931Z,4.15
2022-11-13T09:35:49.277Z,3.60
2022-11-13T09:38:34.424Z,3.85
2022-11-13T09:41:22.793Z,3.60
2022-11-13T09:44:31.976Z,3.92
2022-11-13T09:47:32.825Z,3.15
2022-11-13T09:50:21.343Z,3.20
2022-11-13T09:53:06.986Z,3.20
2022-11-13T09:56:06.914Z,2.90
2022-11-13T09:59:01.287Z,2.70
2022-11-13T10:01:55.547Z,3.08
2022-11-13T10:04:57.800Z,2.63
2022-11-13T10:08:21.567Z,2.95
2022-11-13T10:11:15.024Z,3.00
2022-11-13T10:14:09.016Z,4.20
2022-11-13T10:17:24.604Z,3.03
2022-11-13T10:20:20.893Z,3.00
2022-11-13T10:23:19.455Z,2.15
2022-11-13T10:26:18.598Z,2.25
2022-11-13T10:29:15.111Z,2.15
2022-11-13T10:32:14.458Z,2.20
2022-11-13T10:35:04.981Z,2.60
2022-11-13T10:38:11.287Z,1.88
2022-11-13T10:41:13.660Z,2.13
2022-11-13T10:44:02.642Z,1.70
2022-11-13T10:46:47.998Z,2.25
2022-11-13T10:49:33.238Z,2.03
2022-11-13T10:52:28.110Z,2.33
2022-11-13T10:55:25.087Z,1.95
2022-11-13T10:58:14.386Z,1.50
2022-11-13T11:00:59.996Z,3.25
2022-11-13T11:03:50.261Z,1.92
2022-11-13T11:07:12.673Z,1.67
2022-11-13T11:09:46.660Z,1.85
2022-11-13T11:12:32.296Z,1.95
2022-11-13T11:15:47.230Z,2.08
2022-11-13T11:18:44.577Z,2.00
2022-11-13T11:21:34.164Z,1.98
2022-11-13T11:24:28.382Z,1.98
2022-11-13T11:27:25.646Z,3.70
2022-11-13T11:30:22.190Z,2.28
2022-11-13T11:33:31.259Z,2.35
2022-11-13T11:36:32.682Z,2.13
2022-11-13T11:39:46.718Z,2.15
2022-11-13T11:42:50.582Z,2.55
2022-11-13T11:45:43.890Z,2.17
2022-11-13T11:48:33.502Z,2.03
2022-11-13T11:51:21.812Z,1.80
2022-11-13T11:54:25.353Z,2.10
2022-11-13T12:00:20.490Z,1.58
2022-11-13T12:03:39.017Z,1.90
2022-11-13T12:06:34.484Z,1.83
2022-11-13T12:09:31.941Z,2.08
2022-11-13T12:12:19.857Z,1.92
2022-11-13T12:15:06.530Z,2.30
2022-11-13T12:18:10.207Z,2.13
2022-11-13T12:24:20.794Z,1.80
2022-11-13T12:27:49.081Z,1.92
2022-11-13T12:30:49.325Z,2.25
2022-11-13T12:34:01.927Z,1.80
2022-11-13T12:36:48.279Z,1.70
2022-11-13T12:39:44.025Z,1.90
2022-11-13T12:42:44.587Z,1.95
2022-11-13T12:45:50.818Z,2.65
2022-11-13T12:48:39.063Z,1.95
2022-11-13T12:51:24.238Z,1.70
2022-11-13T12:54:10.548Z,1.83
2022-11-13T12:57:14.042Z,1.92
2022-11-13T13:03:15.654Z,1.90
2022-11-13T13:06:14.673Z,2.20
2022-11-13T13:09:29.662Z,2.03
2022-11-13T13:12:59.370Z,1.90
2022-11-13T13:15:53.205Z,1.98
2022-11-13T13:18:39.874Z,2.22
2022-11-13T13:21:25.394Z,2.08
2022-11-13T13:24:29.218Z,1.85
2022-11-13T13:27:22.721Z,2.20
2022-11-13T13:30:28.129Z,2.15
2022-11-13T13:33:31.771Z,2.30
2022-11-13T13:36:36.144Z,1.70
2022-11-13T13:39:53.089Z,2.17
2022-11-13T13:42:55.623Z,2.20
2022-11-13T13:45:59.088Z,2.28
2022-11-13T13:48:47.114Z,2.20
2022-11-13T13:51:45.361Z,2.00
2022-11-13T13:54:34.398Z,2.60
2022-11-13T13:57:20.146Z,2.95
2022-11-13T14:00:13.787Z,2.75
2022-11-13T14:02:59.324Z,2.17
2022-11-13T14:05:44.527Z,2.40
2022-11-13T14:08:30.564Z,2.60
2022-11-13T14:11:29.490Z,2.30
2022-11-13T14:14:21.416Z,1.85
2022-11-13T14:17:08.737Z,2.88
2022-11-13T14:19:55.984Z,2.53
2022-11-13T14:22:44.332Z,2.00
2022-11-13T14:25:29.917Z,2.58
2022-11-13T14:28:18.771Z,2.42
2022-11-13T14:31:10.154Z,2.15
2022-11-13T14:33:57.147Z,2.58
2022-11-13T14:36:42.889Z,2.15
2022-11-13T14:39:31.662Z,2.25
2022-11-13T14:42:37.323Z,2.08
2022-11-13T14:45:24.106Z,2.35
2022-11-13T14:48:33.386Z,2.08
2022-11-13T14:51:26.609Z,2.75
2022-11-13T14:54:33.795Z,2.30
2022-11-13T14:57:27.029Z,2.38
2022-11-13T15:00:34.098Z,1.95
2022-11-13T15:03:19.164Z,1.92
2022-11-13T15:06:04.624Z,2.08
2022-11-13T15:08:54.043Z,2.30
2022-11-13T15:11:40.352Z,2.72
2022-11-13T15:14:25.792Z,2.63
2022-11-13T15:17:17.427Z,2.03
2022-11-13T15:20:09.266Z,2.47
2022-11-13T15:22:57.058Z,1.95
2022-11-13T15:25:42.701Z,2.65
2022-11-13T15:28:27.924Z,2.40
2022-11-13T15:31:31.816Z,2.35
2022-11-13T15:37:03.123Z,2.58
2022-11-13T15:39:48.551Z,2.15
2022-11-13T15:42:35.703Z,2.22
2022-11-13T15:45:21.335Z,1.83
2022-11-13T15:48:09.914Z,1.77
2022-11-13T15:50:55.237Z,2.13
2022-11-13T15:53:40.457Z,2.25
2022-11-13T15:56:27.110Z,2.08
2022-11-13T15:59:14.141Z,2.40
2022-11-13T16:01:59.892Z,2.20
2022-11-13T16:04:56.082Z,2.15
2022-11-13T16:07:43.130Z,2.63
2022-11-13T16:10:28.560Z,2.42
2022-11-13T16:13:14.172Z,2.47
2022-11-13T16:16:00.428Z,3.00
2022-11-13T16:18:46.449Z,2.30
2022-11-13T16:21:32.264Z,2.13
2022-11-13T16:24:21.072Z,2.97
2022-11-13T16:27:13.250Z,2.58
2022-11-13T16:30:02.381Z,2.33
2022-11-13T16:32:52.077Z,2.28
2022-11-13T16:35:37.824Z,1.90
2022-11-13T16:38:23.082Z,2.53
2022-11-13T16:41:10.991Z,2.33
2022-11-13T16:43:56.634Z,2.47
2022-11-13T16:46:45.231Z,2.00
2022-11-13T16:49:30.448Z,2.92
2022-11-13T16:52:16.801Z,2.50
2022-11-13T16:55:06.248Z,1.65
2022-11-13T16:57:51.845Z,2.22
2022-11-13T17:00:37.319Z,1.75
2022-11-13T17:03:22.658Z,1.80
2022-11-13T17:06:24.145Z,2.10
2022-11-13T17:09:10.011Z,1.83
2022-11-13T17:11:55.139Z,1.90
2022-11-13T17:14:40.680Z,1.92
2022-11-13T17:17:26.055Z,2.17
2022-11-13T17:20:13.473Z,2.00
2022-11-13T17:22:58.563Z,2.13
2022-11-13T17:25:44.007Z,1.55
2022-11-13T17:28:29.521Z,2.50
2022-11-13T17:31:15.082Z,1.40
2022-11-13T17:34:00.313Z,2.40
2022-11-13T17:36:46.256Z,2.00
2022-11-13T17:39:31.623Z,1.80
2022-11-13T17:42:17.169Z,2.53
2022-11-13T17:45:02.615Z,2.10
2022-11-13T17:47:49.934Z,1.95
2022-11-13T17:50:35.361Z,2.55
2022-11-13T17:53:20.546Z,1.73
2022-11-13T17:56:08.074Z,1.70
2022-11-13T17:58:53.523Z,2.25
2022-11-13T18:01:39.284Z,2.33
2022-11-13T18:04:25.029Z,2.38
2022-11-13T18:07:10.588Z,2.10
2022-11-13T18:09:56.462Z,2.00
2022-11-13T18:12:41.926Z,1.73
2022-11-13T18:15:27.426Z,2.33
2022-11-13T18:18:12.866Z,2.30
2022-11-13T18:20:58.334Z,1.88
2022-11-13T18:23:44.229Z,2.10
2022-11-13T18:26:30.831Z,2.50
2022-11-13T18:29:16.102Z,2.22
2022-11-13T18:32:01.932Z,1.33
2022-11-13T18:34:47.375Z,2.47
2022-11-13T18:37:32.904Z,2.08
2022-11-13T18:40:18.306Z,2.45
2022-11-13T18:43:03.708Z,2.25
2022-11-13T18:45:56.844Z,1.83
2022-11-13T18:48:43.598Z,1.92
2022-11-13T18:51:30.370Z,1.80
2022-11-13T18:54:15.608Z,2.97
2022-11-13T18:57:00.903Z,1.88
2022-11-13T18:59:46.362Z,2.13
2022-11-13T19:02:31.814Z,1.92
2022-11-13T19:05:17.198Z,2.05
2022-11-13T19:08:02.520Z,1.70
2022-11-13T19:10:48.139Z,2.70
2022-11-13T19:13:34.840Z,1.75
2022-11-13T19:16:33.079Z,1.77
2022-11-13T19:19:20.459Z,1.90
2022-11-13T19:22:05.713Z,1.77
2022-11-13T19:24:51.247Z,2.05
2022-11-13T19:27:36.741Z,1.85
2022-11-13T19:30:22.377Z,2.42
2022-11-13T19:33:07.592Z,2.05
2022-11-13T19:35:54.646Z,1.80
2022-11-13T19:38:40.313Z,2.03
2022-11-13T19:41:26.999Z,2.22
2022-11-13T19:44:12.467Z,1.88
2022-11-13T19:46:57.896Z,2.33
2022-11-13T19:49:43.164Z,2.38
2022-11-13T19:52:28.523Z,1.90
2022-11-13T19:55:14.038Z,1.80
2022-11-13T19:57:59.551Z,2.63
2022-11-13T20:00:44.970Z,2.47
2022-11-13T20:03:30.339Z,2.55
2022-11-13T20:06:17.233Z,2.85
2022-11-13T20:09:03.864Z,2.65
2022-11-13T20:11:49.399Z,2.33
2022-11-13T20:14:38.391Z,1.98
2022-11-13T20:17:24.098Z,2.60
2022-11-13T20:20:09.813Z,2.03
2022-11-13T20:22:55.782Z,2.58
2022-11-13T20:25:41.315Z,2.50
2022-11-13T20:28:31.444Z,2.65
2022-11-13T20:31:19.678Z,2.85
2022-11-13T20:34:05.064Z,2.63
2022-11-13T20:36:50.548Z,2.28
2022-11-13T20:39:36.043Z,3.00
2022-11-13T20:42:21.421Z,2.42
2022-11-13T20:45:07.268Z,2.10
2022-11-13T20:47:52.792Z,2.15
2022-11-13T20:50:38.584Z,2.85
2022-11-13T20:53:24.003Z,2.15
2022-11-13T20:56:10.486Z,1.90
2022-11-13T20:58:56.025Z,2.45
2022-11-13T21:01:41.494Z,3.00
2022-11-13T21:04:26.784Z,2.03
2022-11-13T21:07:12.439Z,2.05
2022-11-13T21:09:57.776Z,2.53
2022-11-13T21:12:43.182Z,2.45
2022-11-13T21:15:29.365Z,1.77
2022-11-13T21:18:15.164Z,2.30
2022-11-13T21:21:07.875Z,2.58
2022-11-13T21:23:56.145Z,2.35
2022-11-13T21:26:41.448Z,2.65
2022-11-13T21:29:26.825Z,2.35
2022-11-13T21:32:12.515Z,1.83
2022-11-13T21:34:59.238Z,1.52
2022-11-13T21:37:44.544Z,2.20
2022-11-13T21:40:30.136Z,2.95
2022-11-13T21:43:15.549Z,2.42
2022-11-13T21:46:05.580Z,1.88
2022-11-13T21:48:56.857Z,1.83
2022-11-13T21:51:43.192Z,4.15
2022-11-13T21:54:28.531Z,1.73
2022-11-13T21:57:14.332Z,2.50
2022-11-13T21:59:59.433Z,1.83
2022-11-13T22:02:44.864Z,2.05
2022-11-13T22:05:30.466Z,1.50
2022-11-13T22:08:15.868Z,1.42
2022-11-13T22:11:01.421Z,1.83
2022-11-13T22:13:46.775Z,1.70
2022-11-13T22:16:34.175Z,2.35
2022-11-13T22:19:23.987Z,2.10
2022-11-13T22:22:12.696Z,2.20
2022-11-13T22:24:58.099Z,1.60
2022-11-13T22:27:43.572Z,1.83
2022-11-13T22:30:28.827Z,2.00
2022-11-13T22:33:14.330Z,1.70
2022-11-13T22:36:14.758Z,1.60
2022-11-13T22:39:00.471Z,2.13
2022-11-13T22:41:45.963Z,1.75
2022-11-13T22:44:51.214Z,2.03
2022-11-13T22:47:38.141Z,1.80
2022-11-13T22:50:24.878Z,1.58
2022-11-13T22:53:10.798Z,1.55
2022-11-13T22:56:05.239Z,1.80
2022-11-13T22:58:53.233Z,2.05
2022-11-13T23:01:40.249Z,3.00
2022-11-13T23:04:25.622Z,2.25
2022-11-13T23:07:11.023Z,1.95
2022-11-13T23:09:56.217Z,1.70
2022-11-13T23:12:41.709Z,2.25
2022-11-13T23:15:27.101Z,1.75
2022-11-13T23:18:12.661Z,1.88
2022-11-13T23:20:58.766Z,2.20
2022-11-13T23:23:44.052Z,2.20
2022-11-13T23:26:29.621Z,2.10
2022-11-13T23:29:14.730Z,1.55
2022-11-13T23:32:00.561Z,2.17
2022-11-13T23:34:59.163Z,2.33
2022-11-13T23:37:46.378Z,2.30
2022-11-13T23:40:31.811Z,3.28
2022-11-13T23:43:17.223Z,2.83
2022-11-13T23:46:02.823Z,2.42
2022-11-13T23:48:48.168Z,2.85
2022-11-13T23:51:33.769Z,2.47
2022-11-13T23:54:19.136Z,3.35
2022-11-13T23:57:04.717Z,2.78
2022-11-13T23:59:50.161Z,2.15
